createdAt,value
2018-11-20T00:00:01.313Z,87.77
2018-11-20T00:01:01.286Z,87.73
2018-11-20T00:02:01.260Z,88.06
2018-11-20T00:03:01.233Z,87.59
2018-11-20T00:04:01.215Z,87.35
2018-11-20T00:05:01.213Z,87.21
2018-11-20T00:06:01.153Z,87.87
2018-11-20T00:07:01.128Z,88.25
2018-11-20T00:08:01.114Z,87.83
2018-11-20T00:09:01.079Z,87.92
2018-11-20T00:10:01.045Z,88.40
2018-11-20T00:11:01.036Z,87.45
2018-11-20T00:12:00.994Z,87.54
2018-11-20T00:13:00.968Z,86.88
2018-11-20T00:14:00.940Z,86.98
2018-11-20T00:15:00.918Z,86.22
2018-11-20T00:16:00.894Z,87.07
2018-11-20T00:17:00.859Z,86.88
2018-11-20T00:18:00.832Z,86.12
2018-11-20T00:19:00.816Z,86.31
2018-11-20T00:20:00.782Z,86.79
2018-11-20T00:21:00.752Z,86.50
2018-11-20T00:22:00.724Z,86.60
2018-11-20T00:23:00.701Z,86.60
2018-11-20T00:24:00.672Z,86.31
2018-11-20T00:25:00.642Z,86.31
2018-11-20T00:26:00.617Z,86.69
2018-11-20T00:27:00.589Z,86.50
2018-11-20T00:28:00.567Z,86.41
2018-11-20T00:29:00.534Z,86.45
2018-11-20T00:30:00.509Z,86.60
2018-11-20T00:31:00.501Z,86.98
2018-11-20T00:32:00.473Z,86.12
2018-11-20T00:33:00.435Z,86.50
2018-11-20T00:34:00.398Z,86.69
2018-11-20T00:35:00.375Z,86.41
2018-11-20T00:36:00.345Z,86.79
2018-11-20T00:37:00.319Z,87.12
2018-11-20T00:38:00.290Z,87.21
2018-11-20T00:39:00.264Z,87.16
2018-11-20T00:40:00.238Z,87.12
2018-11-20T00:41:00.211Z,87.02
2018-11-20T00:42:00.197Z,87.30
2018-11-20T00:43:00.157Z,87.30
2018-11-20T00:44:00.132Z,87.12
2018-11-20T00:45:00.100Z,87.30
2018-11-20T00:46:00.080Z,87.59
2018-11-20T00:47:00.063Z,87.73
2018-11-20T00:48:00.019Z,87.87
2018-11-20T00:48:59.992Z,87.59
2018-11-20T00:49:59.965Z,88.16
2018-11-20T00:50:59.944Z,88.16
2018-11-20T00:51:59.919Z,88.35
2018-11-20T00:52:59.882Z,87.97
2018-11-20T00:53:59.856Z,88.16
2018-11-20T00:54:59.835Z,87.87
2018-11-20T00:55:59.810Z,88.25
2018-11-20T00:56:59.777Z,88.35
2018-11-20T00:57:59.763Z,88.30
2018-11-20T00:58:59.731Z,88.44
2018-11-20T00:59:59.694Z,88.73
2018-11-20T01:00:59.672Z,88.73
2018-11-20T01:01:59.649Z,88.82
2018-11-20T01:02:59.613Z,88.73
2018-11-20T01:03:59.587Z,88.16
2018-11-20T01:04:59.559Z,88.63
2018-11-20T01:05:59.538Z,88.35
2018-11-20T01:06:59.507Z,88.35
2018-11-20T01:07:59.480Z,88.82
2018-11-20T01:08:59.459Z,89.39
2018-11-20T01:09:59.425Z,89.01
2018-11-20T01:10:59.396Z,89.20
2018-11-20T01:11:59.371Z,89.20
2018-11-20T01:12:59.348Z,89.11
2018-11-20T01:13:59.316Z,89.20
2018-11-20T01:14:59.293Z,89.58
2018-11-20T01:15:59.265Z,89.77
2018-11-20T01:16:59.243Z,89.96
2018-11-20T01:17:59.208Z,89.77
2018-11-20T01:18:59.185Z,90.15
2018-11-20T01:19:59.158Z,90.05
2018-11-20T01:20:59.129Z,89.58
2018-11-20T01:21:59.101Z,89.58
2018-11-20T01:22:59.073Z,89.58
2018-11-20T01:23:59.051Z,89.96
2018-11-20T01:24:59.019Z,89.96
2018-11-20T01:25:59.002Z,89.96
2018-11-20T01:26:58.966Z,90.05
2018-11-20T01:27:58.950Z,90.34
2018-11-20T01:28:58.911Z,90.34
2018-11-20T01:29:58.886Z,90.53
2018-11-20T01:30:58.860Z,90.05
2018-11-20T01:31:58.833Z,90.53
2018-11-20T01:32:58.805Z,90.05
2018-11-20T01:33:58.779Z,90.24
2018-11-20T01:34:58.761Z,90.43
2018-11-20T01:35:58.726Z,90.34
2018-11-20T01:36:58.699Z,90.72
2018-11-20T01:37:58.673Z,90.34
2018-11-20T01:38:58.645Z,90.53
2018-11-20T01:39:58.618Z,90.43
2018-11-20T01:40:58.599Z,90.24
2018-11-20T01:41:58.564Z,90.34
2018-11-20T01:42:58.538Z,90.24
2018-11-20T01:43:58.513Z,90.34
2018-11-20T01:44:58.485Z,90.43
2018-11-20T01:45:58.458Z,90.72
2018-11-20T01:46:58.438Z,90.62
2018-11-20T01:47:58.405Z,90.24
2018-11-20T01:48:58.387Z,90.34
2018-11-20T01:49:58.360Z,90.43
2018-11-20T01:50:58.323Z,90.43
2018-11-20T01:51:58.301Z,89.96
2018-11-20T01:52:58.269Z,90.05
2018-11-20T01:53:58.242Z,90.05
2018-11-20T01:54:58.218Z,90.15
2018-11-20T01:55:58.189Z,89.86
2018-11-20T01:56:58.161Z,89.96
2018-11-20T01:57:58.134Z,89.58
2018-11-20T01:58:58.112Z,89.67
2018-11-20T01:59:58.091Z,89.58
2018-11-20T02:00:58.056Z,90.34
2018-11-20T02:01:58.079Z,90.24
2018-11-20T02:02:58.002Z,90.72
2018-11-20T02:03:57.988Z,90.53
2018-11-20T02:04:57.957Z,90.34
2018-11-20T02:05:57.926Z,90.34
2018-11-20T02:06:57.895Z,90.34
2018-11-20T02:07:57.867Z,90.34
2018-11-20T02:08:57.840Z,90.72
2018-11-20T02:09:57.814Z,91.00
2018-11-20T02:10:57.795Z,91.19
2018-11-20T02:11:57.771Z,90.53
2018-11-20T02:12:57.736Z,91.19
2018-11-20T02:13:57.706Z,91.09
2018-11-20T02:14:57.682Z,91.00
2018-11-20T02:15:57.655Z,90.91
2018-11-20T02:16:57.630Z,91.19
2018-11-20T02:17:57.600Z,91.38
2018-11-20T02:18:57.575Z,91.19
2018-11-20T02:19:57.546Z,91.19
2018-11-20T02:20:57.519Z,91.09
2018-11-20T02:21:57.492Z,91.00
2018-11-20T02:22:57.470Z,91.09
2018-11-20T02:23:57.439Z,91.38
2018-11-20T02:24:57.421Z,90.91
2018-11-20T02:25:57.436Z,90.81
2018-11-20T02:26:57.363Z,91.00
2018-11-20T02:27:57.349Z,90.62
2018-11-20T02:28:57.307Z,90.72
2018-11-20T02:29:57.286Z,90.81
2018-11-20T02:30:57.262Z,90.72
2018-11-20T02:31:57.229Z,90.53
2018-11-20T02:32:57.202Z,90.53
2018-11-20T02:33:57.174Z,90.53
2018-11-20T02:34:57.148Z,90.72
2018-11-20T02:35:57.125Z,89.48
2018-11-20T02:36:57.093Z,89.29
2018-11-20T02:37:57.065Z,89.96
2018-11-20T02:38:57.037Z,89.29
2018-11-20T02:39:57.022Z,90.05
2018-11-20T02:40:56.984Z,89.77
2018-11-20T02:41:56.974Z,89.58
2018-11-20T02:42:56.934Z,89.48
2018-11-20T02:43:56.906Z,89.29
2018-11-20T02:44:56.876Z,89.20
2018-11-20T02:45:56.857Z,89.29
2018-11-20T02:46:56.822Z,88.73
2018-11-20T02:47:56.800Z,88.35
2018-11-20T02:48:56.768Z,88.44
2018-11-20T02:49:56.796Z,88.35
2018-11-20T02:50:56.714Z,87.97
2018-11-20T02:51:56.689Z,87.77
2018-11-20T02:52:56.669Z,88.44
2018-11-20T02:53:56.634Z,88.35
2018-11-20T02:54:56.607Z,88.44
2018-11-20T02:55:56.580Z,88.73
2018-11-20T02:56:56.563Z,88.25
2018-11-20T02:57:56.528Z,88.16
2018-11-20T02:58:56.499Z,88.16
2018-11-20T02:59:56.475Z,87.77
2018-11-20T03:00:56.445Z,88.25
2018-11-20T03:01:56.419Z,87.97
2018-11-20T03:02:56.394Z,88.16
2018-11-20T03:03:56.367Z,87.49
2018-11-20T03:04:56.337Z,87.40
2018-11-20T03:05:56.469Z,87.40
2018-11-20T03:06:56.294Z,87.68
2018-11-20T03:07:56.257Z,87.59
2018-11-20T03:08:56.280Z,87.68
2018-11-20T03:09:56.203Z,87.97
2018-11-20T03:10:56.190Z,87.59
2018-11-20T03:11:56.155Z,87.87
2018-11-20T03:12:56.125Z,87.59
2018-11-20T03:13:56.096Z,87.59
2018-11-20T03:14:56.070Z,87.59
2018-11-20T03:15:56.050Z,87.68
2018-11-20T03:16:56.016Z,87.21
2018-11-20T03:17:55.991Z,87.21
2018-11-20T03:18:55.962Z,87.30
2018-11-20T03:19:55.988Z,86.93
2018-11-20T03:20:55.918Z,86.83
2018-11-20T03:21:55.887Z,86.93
2018-11-20T03:22:55.856Z,86.55
2018-11-20T03:23:55.837Z,86.55
2018-11-20T03:24:55.807Z,86.74
2018-11-20T03:25:55.778Z,86.64
2018-11-20T03:26:55.845Z,86.45
2018-11-20T03:27:55.721Z,86.74
2018-11-20T03:28:55.691Z,86.35
2018-11-20T03:29:55.667Z,86.16
2018-11-20T03:30:55.647Z,86.74
2018-11-20T03:31:55.612Z,86.74
2018-11-20T03:32:55.585Z,87.12
2018-11-20T03:33:55.558Z,86.93
2018-11-20T03:34:55.532Z,86.74
2018-11-20T03:35:55.521Z,87.30
2018-11-20T03:36:55.477Z,87.12
2018-11-20T03:37:55.451Z,87.30
2018-11-20T03:38:55.423Z,87.40
2018-11-20T03:39:55.405Z,87.12
2018-11-20T03:40:55.375Z,87.59
2018-11-20T03:41:55.343Z,87.49
2018-11-20T03:42:55.320Z,87.59
2018-11-20T03:43:55.339Z,87.40
2018-11-20T03:44:55.262Z,87.77
2018-11-20T03:45:55.235Z,87.77
2018-11-20T03:46:55.208Z,87.49
2018-11-20T03:47:55.349Z,87.40
2018-11-20T03:48:55.153Z,87.87
2018-11-20T03:49:55.127Z,87.77
2018-11-20T03:50:55.151Z,88.16
2018-11-20T03:51:55.074Z,88.35
2018-11-20T03:52:55.047Z,88.54
2018-11-20T03:53:55.021Z,88.16
2018-11-20T03:54:54.996Z,88.06
2018-11-20T03:55:54.968Z,88.16
2018-11-20T03:56:54.939Z,88.35
2018-11-20T03:57:54.913Z,88.35
2018-11-20T03:58:54.889Z,88.54
2018-11-20T03:59:54.865Z,89.39
2018-11-20T04:00:54.832Z,89.48
2018-11-20T04:01:54.806Z,89.11
2018-11-20T04:02:54.785Z,89.48
2018-11-20T04:03:54.755Z,89.39
2018-11-20T04:04:54.738Z,89.48
2018-11-20T04:05:54.697Z,88.92
2018-11-20T04:06:54.670Z,89.11
2018-11-20T04:07:54.649Z,89.20
2018-11-20T04:08:54.617Z,89.20
2018-11-20T04:09:54.592Z,89.58
2018-11-20T04:10:54.570Z,89.86
2018-11-20T04:11:54.537Z,89.39
2018-11-20T04:12:54.511Z,89.48
2018-11-20T04:13:54.530Z,89.48
2018-11-20T04:14:54.458Z,89.67
2018-11-20T04:15:54.441Z,89.58
2018-11-20T04:16:54.412Z,89.67
2018-11-20T04:17:54.463Z,89.86
2018-11-20T04:18:54.351Z,90.05
2018-11-20T04:19:54.328Z,89.58
2018-11-20T04:20:54.295Z,89.86
2018-11-20T04:21:54.273Z,89.48
2018-11-20T04:22:54.242Z,89.58
2018-11-20T04:23:54.217Z,89.39
2018-11-20T04:24:54.191Z,89.48
2018-11-20T04:25:54.165Z,89.86
2018-11-20T04:26:54.135Z,89.58
2018-11-20T04:27:54.117Z,90.05
2018-11-20T04:28:54.087Z,89.48
2018-11-20T04:29:54.055Z,89.86
2018-11-20T04:30:54.028Z,89.96
2018-11-20T04:31:54.004Z,90.05
2018-11-20T04:32:53.975Z,89.96
2018-11-20T04:33:53.948Z,89.29
2018-11-20T04:34:53.921Z,89.96
2018-11-20T04:35:53.901Z,89.86
2018-11-20T04:36:53.866Z,89.86
2018-11-20T04:37:53.840Z,89.77
2018-11-20T04:38:53.813Z,89.96
2018-11-20T04:39:53.787Z,89.77
2018-11-20T04:40:53.760Z,90.43
2018-11-20T04:41:53.739Z,90.34
2018-11-20T04:42:53.706Z,89.96
2018-11-20T04:43:53.688Z,90.05
2018-11-20T04:44:53.652Z,89.86
2018-11-20T04:45:53.628Z,89.58
2018-11-20T04:46:53.600Z,90.05
2018-11-20T04:47:53.572Z,89.96
2018-11-20T04:48:53.546Z,89.67
2018-11-20T04:49:53.580Z,89.77
2018-11-20T04:50:53.492Z,90.05
2018-11-20T04:51:53.468Z,89.58
2018-11-20T04:52:53.437Z,89.86
2018-11-20T04:53:53.411Z,90.53
2018-11-20T04:54:53.388Z,90.43
2018-11-20T04:55:53.358Z,90.34
2018-11-20T04:56:53.329Z,90.62
2018-11-20T04:57:53.307Z,90.53
2018-11-20T04:58:53.287Z,90.24
2018-11-20T04:59:53.251Z,89.67
2018-11-20T05:00:53.230Z,89.96
2018-11-20T05:01:53.202Z,89.96
2018-11-20T05:02:53.170Z,90.43
2018-11-20T05:03:53.144Z,90.34
2018-11-20T05:04:53.116Z,90.53
2018-11-20T05:05:53.148Z,90.53
2018-11-20T05:06:53.188Z,90.43
2018-11-20T05:07:53.037Z,90.15
2018-11-20T05:08:53.013Z,89.67
2018-11-20T05:09:52.983Z,89.77
2018-11-20T05:10:52.956Z,90.72
2018-11-20T05:11:52.930Z,90.53
2018-11-20T05:12:52.902Z,90.43
2018-11-20T05:13:52.875Z,90.34
2018-11-20T05:14:52.849Z,90.05
2018-11-20T05:15:52.838Z,89.77
2018-11-20T05:16:52.795Z,90.05
2018-11-20T05:17:52.768Z,89.96
2018-11-20T05:18:52.740Z,90.05
2018-11-20T05:19:52.716Z,90.34
2018-11-20T05:20:52.687Z,89.77
2018-11-20T05:21:52.662Z,89.58
2018-11-20T05:22:52.634Z,89.67
2018-11-20T05:23:52.607Z,89.96
2018-11-20T05:24:52.584Z,89.67
2018-11-20T05:25:52.554Z,89.77
2018-11-20T05:26:52.535Z,89.96
2018-11-20T05:27:52.512Z,89.67
2018-11-20T05:28:52.473Z,90.15
2018-11-20T05:29:52.447Z,90.53
2018-11-20T05:30:52.436Z,90.72
2018-11-20T05:31:52.393Z,89.96
2018-11-20T05:32:52.365Z,89.67
2018-11-20T05:33:52.339Z,89.86
2018-11-20T05:34:52.313Z,89.96
2018-11-20T05:35:52.285Z,89.67
2018-11-20T05:36:52.260Z,89.86
2018-11-20T05:37:52.238Z,90.15
2018-11-20T05:38:52.216Z,89.58
2018-11-20T05:39:52.186Z,88.82
2018-11-20T05:40:52.150Z,89.39
2018-11-20T05:41:52.127Z,89.86
2018-11-20T05:42:52.098Z,89.86
2018-11-20T05:43:52.087Z,90.05
2018-11-20T05:44:52.045Z,89.86
2018-11-20T05:45:52.017Z,90.34
2018-11-20T05:46:52.057Z,90.34
2018-11-20T05:47:51.965Z,90.53
2018-11-20T05:48:51.937Z,90.91
2018-11-20T05:49:51.913Z,90.62
2018-11-20T05:50:51.884Z,91.28
2018-11-20T05:51:51.856Z,90.62
2018-11-20T05:52:51.834Z,91.28
2018-11-20T05:53:51.805Z,91.09
2018-11-20T05:54:51.776Z,91.28
2018-11-20T05:55:51.750Z,91.00
2018-11-20T05:56:51.721Z,90.91
2018-11-20T05:57:51.747Z,91.09
2018-11-20T05:58:51.676Z,91.57
2018-11-20T05:59:51.642Z,91.85
2018-11-20T06:00:51.623Z,91.95
2018-11-20T06:01:51.591Z,91.66
2018-11-20T06:02:51.562Z,91.95
2018-11-20T06:03:51.544Z,91.57
2018-11-20T06:04:51.507Z,92.42
2018-11-20T06:05:51.521Z,92.14
2018-11-20T06:06:51.553Z,92.33
2018-11-20T06:07:51.429Z,92.42
2018-11-20T06:08:51.409Z,92.14
2018-11-20T06:09:51.374Z,92.80
2018-11-20T06:10:51.347Z,92.23
2018-11-20T06:11:51.323Z,92.71
2018-11-20T06:12:51.418Z,92.23
2018-11-20T06:13:51.269Z,92.61
2018-11-20T06:14:51.242Z,93.18
2018-11-20T06:15:51.214Z,92.90
2018-11-20T06:16:51.189Z,93.37
2018-11-20T06:17:51.163Z,93.75
2018-11-20T06:18:51.186Z,93.56
2018-11-20T06:19:51.110Z,94.13
2018-11-20T06:20:51.082Z,94.51
2018-11-20T06:21:51.055Z,93.94
2018-11-20T06:22:51.036Z,94.04
2018-11-20T06:23:51.002Z,94.32
2018-11-20T06:24:50.974Z,94.23
2018-11-20T06:25:50.948Z,94.42
2018-11-20T06:26:50.924Z,94.60
2018-11-20T06:27:50.894Z,94.70
2018-11-20T06:28:50.993Z,94.42
2018-11-20T06:29:50.841Z,94.79
2018-11-20T06:30:50.836Z,94.70
2018-11-20T06:31:50.788Z,94.79
2018-11-20T06:32:50.760Z,94.79
2018-11-20T06:33:50.738Z,94.89
2018-11-20T06:34:50.778Z,95.17
2018-11-20T06:35:50.682Z,95.36
2018-11-20T06:36:50.656Z,94.89
2018-11-20T06:37:50.626Z,95.26
2018-11-20T06:38:50.601Z,94.70
2018-11-20T06:39:50.591Z,95.07
2018-11-20T06:40:50.548Z,95.65
2018-11-20T06:41:50.521Z,95.84
2018-11-20T06:42:50.494Z,95.55
2018-11-20T06:43:50.477Z,95.17
2018-11-20T06:44:50.444Z,95.55
2018-11-20T06:45:50.514Z,95.36
2018-11-20T06:46:50.387Z,95.26
2018-11-20T06:47:50.360Z,94.89
2018-11-20T06:48:50.335Z,94.79
2018-11-20T06:49:50.306Z,94.51
2018-11-20T06:50:50.281Z,94.13
2018-11-20T06:51:50.262Z,94.51
2018-11-20T06:52:50.299Z,94.32
2018-11-20T06:53:50.211Z,94.13
2018-11-20T06:54:50.178Z,94.13
2018-11-20T06:55:50.151Z,93.94
2018-11-20T06:56:50.123Z,93.84
2018-11-20T06:57:50.093Z,93.75
2018-11-20T06:58:50.069Z,93.56
2018-11-20T06:59:50.043Z,93.75
2018-11-20T07:00:50.022Z,93.56
2018-11-20T07:01:49.991Z,93.18
2018-11-20T07:02:49.960Z,93.08
2018-11-20T07:03:49.940Z,93.37
2018-11-20T07:04:49.917Z,93.65
2018-11-20T07:05:49.884Z,93.75
2018-11-20T07:06:49.861Z,93.56
2018-11-20T07:07:49.918Z,93.27
2018-11-20T07:08:49.848Z,93.46
2018-11-20T07:09:49.781Z,93.08
2018-11-20T07:10:49.746Z,92.80
2018-11-20T07:11:49.720Z,92.14
2018-11-20T07:12:49.690Z,92.23
2018-11-20T07:13:49.773Z,92.23
2018-11-20T07:14:49.639Z,92.23
2018-11-20T07:15:49.799Z,91.66
2018-11-20T07:16:49.593Z,92.42
2018-11-20T07:17:49.577Z,91.57
2018-11-20T07:18:49.534Z,92.52
2018-11-20T07:19:49.508Z,92.23
2018-11-20T07:20:49.478Z,92.23
2018-11-20T07:21:49.453Z,92.23
2018-11-20T07:22:49.426Z,92.04
2018-11-20T07:23:49.404Z,92.42
2018-11-20T07:24:49.451Z,91.76
2018-11-20T07:25:49.346Z,91.76
2018-11-20T07:26:49.370Z,91.57
2018-11-20T07:27:49.293Z,91.76
2018-11-20T07:28:49.263Z,92.04
2018-11-20T07:29:49.371Z,91.47
2018-11-20T07:30:49.374Z,91.95
2018-11-20T07:31:49.230Z,91.57
2018-11-20T07:32:49.168Z,91.95
2018-11-20T07:33:49.131Z,92.52
2018-11-20T07:34:49.132Z,91.57
2018-11-20T07:35:49.078Z,91.38
2018-11-20T07:36:49.209Z,91.19
2018-11-20T07:37:49.024Z,91.47
2018-11-20T07:38:48.996Z,91.76
2018-11-20T07:39:48.971Z,91.57
2018-11-20T07:40:48.949Z,91.57
2018-11-20T07:41:48.917Z,92.42
2018-11-20T07:42:48.891Z,91.57
2018-11-20T07:43:49.058Z,91.38
2018-11-20T07:44:48.835Z,91.28
2018-11-20T07:45:48.808Z,91.19
2018-11-20T07:46:48.787Z,91.00
2018-11-20T07:47:48.757Z,91.00
2018-11-20T07:48:48.728Z,91.19
2018-11-20T07:49:48.707Z,91.57
2018-11-20T07:50:48.684Z,91.76
2018-11-20T07:51:48.653Z,91.95
2018-11-20T07:52:48.622Z,91.38
2018-11-20T07:53:48.604Z,92.42
2018-11-20T07:54:48.568Z,92.33
2018-11-20T07:55:48.620Z,92.23
2018-11-20T07:56:48.519Z,92.33
2018-11-20T07:57:48.488Z,92.42
2018-11-20T07:58:48.462Z,92.04
2018-11-20T07:59:48.434Z,92.42
2018-11-20T08:00:48.407Z,93.18
2018-11-20T08:01:48.379Z,92.33
2018-11-20T08:02:48.355Z,92.90
2018-11-20T08:03:48.371Z,92.33
2018-11-20T08:04:48.302Z,92.71
2018-11-20T08:05:48.282Z,92.90
2018-11-20T08:06:48.247Z,92.52
2018-11-20T08:07:48.220Z,93.46
2018-11-20T08:08:48.208Z,93.84
2018-11-20T08:09:48.166Z,94.13
2018-11-20T08:10:48.220Z,93.56
2018-11-20T08:11:48.115Z,93.56
2018-11-20T08:12:48.094Z,93.65
2018-11-20T08:13:48.066Z,93.18
2018-11-20T08:14:48.034Z,93.56
2018-11-20T08:15:48.015Z,93.65
2018-11-20T08:16:47.983Z,93.65
2018-11-20T08:17:47.954Z,94.79
2018-11-20T08:18:47.925Z,94.51
2018-11-20T08:19:47.901Z,94.60
2018-11-20T08:20:47.954Z,94.04
2018-11-20T08:21:47.847Z,94.13
2018-11-20T08:22:47.820Z,93.46
2018-11-20T08:23:47.796Z,93.94
2018-11-20T08:24:47.776Z,93.65
2018-11-20T08:25:47.831Z,94.04
2018-11-20T08:26:47.724Z,93.84
2018-11-20T08:27:47.687Z,93.56
2018-11-20T08:28:47.671Z,93.65
2018-11-20T08:29:47.635Z,93.46
2018-11-20T08:30:47.637Z,93.84
2018-11-20T08:31:47.585Z,94.13
2018-11-20T08:32:47.554Z,94.32
2018-11-20T08:33:47.636Z,94.42
2018-11-20T08:34:47.528Z,94.13
2018-11-20T08:35:47.476Z,94.32
2018-11-20T08:36:47.450Z,93.84
2018-11-20T08:37:47.433Z,94.32
2018-11-20T08:38:47.404Z,93.75
2018-11-20T08:39:47.385Z,93.65
2018-11-20T08:40:47.341Z,93.37
2018-11-20T08:41:47.319Z,94.13
2018-11-20T08:42:47.297Z,94.32
2018-11-20T08:43:47.269Z,94.13
2018-11-20T08:44:47.236Z,94.70
2018-11-20T08:45:47.211Z,94.60
2018-11-20T08:46:47.184Z,94.13
2018-11-20T08:47:47.200Z,94.13
2018-11-20T08:48:47.142Z,94.51
2018-11-20T08:49:47.106Z,94.42
2018-11-20T08:50:47.077Z,93.75
2018-11-20T08:51:47.057Z,93.94
2018-11-20T08:52:47.079Z,93.56
2018-11-20T08:53:47.094Z,93.84
2018-11-20T08:54:46.970Z,93.94
2018-11-20T08:55:46.946Z,94.32
2018-11-20T08:56:46.917Z,94.51
2018-11-20T08:57:46.890Z,94.32
2018-11-20T08:58:46.866Z,94.51
2018-11-20T08:59:46.838Z,94.04
2018-11-20T09:00:46.818Z,93.84
2018-11-20T09:01:46.782Z,93.94
2018-11-20T09:02:46.860Z,93.84
2018-11-20T09:03:46.737Z,93.75
2018-11-20T09:04:46.702Z,93.65
2018-11-20T09:05:46.675Z,93.75
2018-11-20T09:06:46.663Z,93.84
2018-11-20T09:07:46.624Z,93.65
2018-11-20T09:08:46.596Z,93.94
2018-11-20T09:09:46.641Z,93.37
2018-11-20T09:10:46.555Z,93.46
2018-11-20T09:11:46.518Z,93.75
2018-11-20T09:12:46.489Z,93.65
2018-11-20T09:13:46.463Z,93.56
2018-11-20T09:14:46.436Z,93.56
2018-11-20T09:15:46.412Z,93.56
2018-11-20T09:16:46.382Z,93.56
2018-11-20T09:17:46.393Z,94.04
2018-11-20T09:18:46.334Z,93.94
2018-11-20T09:19:46.318Z,93.56
2018-11-20T09:20:46.276Z,93.84
2018-11-20T09:21:46.255Z,93.65
2018-11-20T09:22:46.222Z,93.84
2018-11-20T09:23:46.197Z,93.84
2018-11-20T09:24:46.168Z,93.84
2018-11-20T09:25:46.228Z,93.56
2018-11-20T09:26:46.114Z,93.65
2018-11-20T09:27:46.146Z,93.94
2018-11-20T09:28:46.060Z,93.84
2018-11-20T09:29:46.040Z,93.65
2018-11-20T09:30:46.011Z,93.94
2018-11-20T09:31:45.987Z,93.94
2018-11-20T09:32:45.968Z,93.75
2018-11-20T09:33:45.928Z,94.04
2018-11-20T09:34:45.983Z,94.13
2018-11-20T09:35:45.993Z,93.94
2018-11-20T09:36:45.847Z,94.04
2018-11-20T09:37:45.839Z,93.75
2018-11-20T09:38:45.796Z,93.56
2018-11-20T09:39:45.766Z,93.56
2018-11-20T09:40:45.741Z,94.42
2018-11-20T09:41:45.714Z,94.23
2018-11-20T09:42:45.686Z,94.04
2018-11-20T09:43:45.670Z,93.75
2018-11-20T09:44:45.637Z,93.65
2018-11-20T09:45:45.625Z,93.56
2018-11-20T09:46:45.604Z,93.65
2018-11-20T09:47:45.551Z,93.84
2018-11-20T09:48:45.527Z,93.56
2018-11-20T09:49:45.506Z,93.84
2018-11-20T09:50:45.479Z,93.46
2018-11-20T09:51:45.449Z,93.56
2018-11-20T09:52:45.501Z,93.08
2018-11-20T09:53:45.391Z,92.90
2018-11-20T09:54:45.364Z,93.27
2018-11-20T09:55:45.338Z,93.27
2018-11-20T09:56:45.315Z,93.18
2018-11-20T09:57:45.284Z,92.71
2018-11-20T09:58:45.258Z,92.42
2018-11-20T09:59:45.261Z,92.42
2018-11-20T10:00:45.209Z,92.99
2018-11-20T10:01:45.181Z,93.56
2018-11-20T10:02:45.154Z,93.08
2018-11-20T10:03:45.227Z,92.90
2018-11-20T10:04:45.100Z,93.08
2018-11-20T10:05:45.093Z,92.33
2018-11-20T10:06:45.059Z,92.71
2018-11-20T10:07:45.021Z,92.52
2018-11-20T10:08:45.012Z,93.18
2018-11-20T10:09:44.965Z,92.80
2018-11-20T10:10:44.942Z,93.08
2018-11-20T10:11:44.912Z,93.18
2018-11-20T10:12:44.899Z,93.18
2018-11-20T10:13:44.872Z,93.27
2018-11-20T10:14:44.954Z,93.18
2018-11-20T10:15:44.815Z,92.61
2018-11-20T10:16:44.780Z,92.42
2018-11-20T10:17:44.760Z,93.18
2018-11-20T10:18:44.728Z,93.56
2018-11-20T10:19:44.698Z,93.27
2018-11-20T10:20:44.713Z,93.18
2018-11-20T10:21:44.664Z,92.80
2018-11-20T10:22:44.626Z,93.08
2018-11-20T10:23:44.629Z,93.37
2018-11-20T10:24:44.651Z,92.61
2018-11-20T10:25:44.662Z,92.42
2018-11-20T10:26:44.531Z,92.04
2018-11-20T10:27:44.488Z,92.52
2018-11-20T10:28:44.464Z,92.80
2018-11-20T10:29:44.438Z,92.99
2018-11-20T10:30:44.413Z,92.90
2018-11-20T10:31:44.381Z,92.90
2018-11-20T10:32:44.356Z,92.42
2018-11-20T10:33:44.329Z,92.61
2018-11-20T10:34:44.367Z,92.61
2018-11-20T10:35:44.284Z,92.04
2018-11-20T10:36:44.255Z,92.61
2018-11-20T10:37:44.221Z,93.27
2018-11-20T10:38:44.204Z,93.27
2018-11-20T10:39:44.170Z,92.99
2018-11-20T10:40:44.143Z,93.18
2018-11-20T10:41:44.117Z,92.71
2018-11-20T10:42:44.090Z,92.71
2018-11-20T10:43:44.065Z,93.08
2018-11-20T10:44:44.036Z,92.33
2018-11-20T10:45:44.012Z,92.52
2018-11-20T10:46:44.117Z,92.42
2018-11-20T10:47:43.960Z,92.71
2018-11-20T10:48:43.930Z,92.61
2018-11-20T10:49:43.903Z,92.42
2018-11-20T10:50:43.883Z,92.61
2018-11-20T10:51:43.852Z,92.61
2018-11-20T10:52:43.914Z,92.52
2018-11-20T10:53:43.800Z,92.33
2018-11-20T10:54:43.772Z,92.33
2018-11-20T10:55:43.745Z,92.23
2018-11-20T10:56:43.723Z,92.42
2018-11-20T10:57:43.691Z,92.04
2018-11-20T10:58:43.668Z,91.76
2018-11-20T10:59:43.755Z,91.85
2018-11-20T11:00:43.612Z,91.76
2018-11-20T11:01:43.587Z,91.66
2018-11-20T11:02:43.571Z,91.66
2018-11-20T11:03:43.538Z,91.09
2018-11-20T11:04:43.525Z,91.47
2018-11-20T11:05:43.481Z,91.19
2018-11-20T11:06:43.637Z,91.85
2018-11-20T11:07:43.567Z,91.76
2018-11-20T11:08:43.405Z,91.57
2018-11-20T11:09:43.384Z,91.57
2018-11-20T11:10:43.359Z,91.38
2018-11-20T11:11:43.372Z,91.57
2018-11-20T11:12:43.485Z,91.47
2018-11-20T11:13:43.274Z,91.95
2018-11-20T11:14:43.284Z,91.85
2018-11-20T11:15:43.221Z,91.66
2018-11-20T11:16:43.197Z,91.76
2018-11-20T11:17:43.166Z,92.33
2018-11-20T11:18:43.147Z,92.52
2018-11-20T11:19:43.114Z,92.23
2018-11-20T11:20:43.217Z,91.85
2018-11-20T11:21:43.062Z,92.23
2018-11-20T11:22:43.041Z,92.42
2018-11-20T11:23:43.011Z,92.23
2018-11-20T11:24:42.985Z,92.04
2018-11-20T11:25:42.959Z,91.47
2018-11-20T11:26:42.948Z,92.33
2018-11-20T11:27:42.908Z,92.33
2018-11-20T11:28:42.880Z,91.76
2018-11-20T11:29:42.854Z,91.66
2018-11-20T11:30:42.841Z,91.76
2018-11-20T11:31:42.824Z,92.23
2018-11-20T11:32:42.776Z,92.23
2018-11-20T11:33:42.758Z,92.04
2018-11-20T11:34:42.732Z,92.33
2018-11-20T11:35:42.704Z,92.23
2018-11-20T11:36:42.670Z,92.23
2018-11-20T11:37:42.687Z,92.33
2018-11-20T11:38:42.621Z,92.14
2018-11-20T11:39:42.592Z,91.66
2018-11-20T11:40:42.579Z,91.66
2018-11-20T11:41:42.538Z,91.76
2018-11-20T11:42:42.525Z,92.33
2018-11-20T11:43:42.498Z,92.33
2018-11-20T11:44:42.458Z,92.33
2018-11-20T11:45:42.435Z,92.23
2018-11-20T11:46:42.410Z,92.23
2018-11-20T11:47:42.382Z,92.23
2018-11-20T11:48:42.354Z,92.23
2018-11-20T11:49:42.342Z,91.76
2018-11-20T11:50:42.301Z,91.85
2018-11-20T11:51:42.275Z,92.04
2018-11-20T11:52:42.265Z,92.23
2018-11-20T11:53:42.222Z,92.23
2018-11-20T11:54:42.195Z,92.04
2018-11-20T11:55:42.186Z,91.85
2018-11-20T11:56:42.145Z,91.09
2018-11-20T11:57:42.117Z,91.28
2018-11-20T11:58:42.092Z,91.85
2018-11-20T11:59:42.065Z,91.76
2018-11-20T12:00:42.037Z,91.47
2018-11-20T12:03:41.961Z,92.04
2018-11-20T12:04:41.949Z,92.33
2018-11-20T12:05:41.930Z,92.80
2018-11-20T12:06:41.881Z,92.52
2018-11-20T12:07:41.857Z,91.85
2018-11-20T12:08:41.830Z,91.57
2018-11-20T12:09:41.802Z,91.19
2018-11-20T12:10:41.879Z,91.19
2018-11-20T12:11:41.761Z,91.47
2018-11-20T12:12:41.721Z,91.00
2018-11-20T12:13:41.700Z,91.19
2018-11-20T12:14:41.679Z,91.19
2018-11-20T12:15:41.648Z,91.09
2018-11-20T12:16:41.617Z,91.19
2018-11-20T12:17:41.598Z,91.19
2018-11-20T12:18:41.572Z,91.28
2018-11-20T12:19:41.539Z,91.19
2018-11-20T12:20:43.395Z,91.19
2018-11-20T12:21:41.488Z,91.95
2018-11-20T12:22:41.462Z,91.76
2018-11-20T12:23:41.438Z,91.85
2018-11-20T12:24:41.414Z,92.42
2018-11-20T12:25:41.380Z,91.47
2018-11-20T12:26:41.469Z,91.19
2018-11-20T12:27:41.367Z,91.38
2018-11-20T12:28:41.309Z,91.57
2018-11-20T12:29:41.286Z,91.19
2018-11-20T12:30:41.250Z,91.09
2018-11-20T12:31:41.233Z,91.19
2018-11-20T12:32:41.220Z,91.76
2018-11-20T12:33:41.954Z,91.57
2018-11-20T12:34:41.145Z,91.57
2018-11-20T12:35:41.116Z,91.38
2018-11-20T12:36:41.088Z,90.81
2018-11-20T12:37:43.705Z,90.62
2018-11-20T12:38:41.423Z,90.81
2018-11-20T12:39:41.018Z,90.81
2018-11-20T12:40:40.984Z,90.91
2018-11-20T12:41:40.957Z,90.53
2018-11-20T12:42:41.154Z,90.34
2018-11-20T12:43:40.904Z,90.72
2018-11-20T12:44:40.877Z,90.72
2018-11-20T12:45:40.862Z,90.81
2018-11-20T12:46:40.825Z,90.43
2018-11-20T12:47:43.192Z,90.62
2018-11-20T12:48:40.774Z,90.53
2018-11-20T12:49:40.750Z,91.28
2018-11-20T12:50:40.720Z,90.53
2018-11-20T12:51:40.693Z,90.34
2018-11-20T12:52:41.304Z,90.34
2018-11-20T12:53:40.770Z,89.96